sensor_id;sensor_type;location;lat;lon;timestamp;P1;durP1;ratioP1;P2;durP2;ratioP2
7575;SDS011;3829;50.798;4.358;2022-11-11T00:02:02;16.53;;;8.57;;
7575;SDS011;3829;50.798;4.358;2022-11-11T00:04:28;13.47;;;7.60;;
7575;SDS011;3829;50.798;4.358;2022-11-11T00:06:54;11.63;;;8.20;;
7575;SDS011;3829;50.798;4.358;2022-11-11T00:09:19;11.90;;;7.93;;
7575;SDS011;3829;50.798;4.358;2022-11-11T00:11:45;10.87;;;7.80;;
7575;SDS011;3829;50.798;4.358;2022-11-11T00:14:10;13.33;;;8.70;;
7575;SDS011;3829;50.798;4.358;2022-11-11T00:16:36;18.37;;;8.30;;
7575;SDS011;3829;50.798;4.358;2022-11-11T00:19:20;12.10;;;7.77;;
7575;SDS011;3829;50.798;4.358;2022-11-11T00:22:06;16.97;;;8.73;;
7575;SDS011;3829;50.798;4.358;2022-11-11T00:25:04;15.20;;;8.43;;
7575;SDS011;3829;50.798;4.358;2022-11-11T00:27:30;14.93;;;8.50;;
7575;SDS011;3829;50.798;4.358;2022-11-11T00:29:55;14.67;;;8.37;;
7575;SDS011;3829;50.798;4.358;2022-11-11T00:32:21;16.20;;;8.40;;
7575;SDS011;3829;50.798;4.358;2022-11-11T00:34:47;16.83;;;8.77;;
7575;SDS011;3829;50.798;4.358;2022-11-11T00:37:32;14.00;;;8.80;;
7575;SDS011;3829;50.798;4.358;2022-11-11T00:39:58;16.87;;;10.23;;
7575;SDS011;3829;50.798;4.358;2022-11-11T00:42:24;16.50;;;9.77;;
7575;SDS011;3829;50.798;4.358;2022-11-11T00:44:49;22.67;;;12.13;;
7575;SDS011;3829;50.798;4.358;2022-11-11T00:47:15;19.43;;;11.70;;
7575;SDS011;3829;50.798;4.358;2022-11-11T00:49:59;17.10;;;11.70;;
7575;SDS011;3829;50.798;4.358;2022-11-11T00:52:44;17.30;;;10.57;;
7575;SDS011;3829;50.798;4.358;2022-11-11T00:55:10;18.87;;;11.13;;
7575;SDS011;3829;50.798;4.358;2022-11-11T00:57:37;18.80;;;10.47;;
7575;SDS011;3829;50.798;4.358;2022-11-11T01:00:02;18.97;;;10.70;;
7575;SDS011;3829;50.798;4.358;2022-11-11T01:02:29;19.60;;;10.50;;
7575;SDS011;3829;50.798;4.358;2022-11-11T01:04:54;17.20;;;11.83;;
7575;SDS011;3829;50.798;4.358;2022-11-11T01:07:20;23.47;;;12.13;;
7575;SDS011;3829;50.798;4.358;2022-11-11T01:09:46;18.63;;;11.67;;
7575;SDS011;3829;50.798;4.358;2022-11-11T01:12:11;20.53;;;11.33;;
7575;SDS011;3829;50.798;4.358;2022-11-11T01:14:37;17.80;;;11.77;;
7575;SDS011;3829;50.798;4.358;2022-11-11T01:17:03;19.17;;;13.00;;
7575;SDS011;3829;50.798;4.358;2022-11-11T01:19:33;24.73;;;13.43;;
7575;SDS011;3829;50.798;4.358;2022-11-11T01:21:59;21.13;;;12.17;;
7575;SDS011;3829;50.798;4.358;2022-11-11T01:24:25;22.40;;;12.43;;
7575;SDS011;3829;50.798;4.358;2022-11-11T01:26:51;22.97;;;12.20;;
7575;SDS011;3829;50.798;4.358;2022-11-11T01:29:17;19.33;;;11.10;;
7575;SDS011;3829;50.798;4.358;2022-11-11T01:31:43;18.57;;;11.97;;
7575;SDS011;3829;50.798;4.358;2022-11-11T01:34:08;18.60;;;10.60;;
7575;SDS011;3829;50.798;4.358;2022-11-11T01:36:34;20.63;;;11.27;;
7575;SDS011;3829;50.798;4.358;2022-11-11T01:38:59;19.17;;;10.60;;
7575;SDS011;3829;50.798;4.358;2022-11-11T01:41:27;17.77;;;9.83;;
7575;SDS011;3829;50.798;4.358;2022-11-11T01:43:59;19.47;;;9.27;;
7575;SDS011;3829;50.798;4.358;2022-11-11T01:46:30;17.20;;;8.87;;
7575;SDS011;3829;50.798;4.358;2022-11-11T01:51:48;11.17;;;7.47;;
7575;SDS011;3829;50.798;4.358;2022-11-11T01:54:16;12.40;;;8.00;;
7575;SDS011;3829;50.798;4.358;2022-11-11T01:56:48;12.23;;;7.20;;
7575;SDS011;3829;50.798;4.358;2022-11-11T01:59:16;11.47;;;6.93;;
7575;SDS011;3829;50.798;4.358;2022-11-11T02:01:43;12.80;;;7.47;;
7575;SDS011;3829;50.798;4.358;2022-11-11T02:04:09;13.37;;;7.27;;
7575;SDS011;3829;50.798;4.358;2022-11-11T02:06:55;15.43;;;7.90;;
7575;SDS011;3829;50.798;4.358;2022-11-11T02:09:24;13.33;;;8.83;;
7575;SDS011;3829;50.798;4.358;2022-11-11T02:11:50;12.47;;;8.13;;
7575;SDS011;3829;50.798;4.358;2022-11-11T02:14:41;15.77;;;8.27;;
7575;SDS011;3829;50.798;4.358;2022-11-11T02:17:10;18.57;;;8.63;;
7575;SDS011;3829;50.798;4.358;2022-11-11T02:19:41;14.50;;;8.63;;
7575;SDS011;3829;50.798;4.358;2022-11-11T02:22:19;18.60;;;8.37;;
7575;SDS011;3829;50.798;4.358;2022-11-11T02:25:04;14.80;;;7.83;;
7575;SDS011;3829;50.798;4.358;2022-11-11T02:27:33;15.27;;;7.53;;
7575;SDS011;3829;50.798;4.358;2022-11-11T02:30:03;13.47;;;7.83;;
7575;SDS011;3829;50.798;4.358;2022-11-11T02:32:30;13.90;;;7.50;;
7575;SDS011;3829;50.798;4.358;2022-11-11T02:34:56;10.73;;;7.30;;
7575;SDS011;3829;50.798;4.358;2022-11-11T02:37:23;15.53;;;8.03;;
7575;SDS011;3829;50.798;4.358;2022-11-11T02:39:50;13.17;;;7.77;;
7575;SDS011;3829;50.798;4.358;2022-11-11T02:42:20;12.33;;;7.87;;
7575;SDS011;3829;50.798;4.358;2022-11-11T02:44:47;12.63;;;8.03;;
7575;SDS011;3829;50.798;4.358;2022-11-11T02:47:13;15.70;;;8.23;;
7575;SDS011;3829;50.798;4.358;2022-11-11T02:49:38;15.23;;;8.30;;
7575;SDS011;3829;50.798;4.358;2022-11-11T02:52:04;10.20;;;7.40;;
7575;SDS011;3829;50.798;4.358;2022-11-11T02:54:29;13.97;;;8.60;;
7575;SDS011;3829;50.798;4.358;2022-11-11T02:56:55;16.00;;;9.30;;
7575;SDS011;3829;50.798;4.358;2022-11-11T02:59:34;16.73;;;8.80;;
7575;SDS011;3829;50.798;4.358;2022-11-11T03:02:00;13.80;;;9.70;;
7575;SDS011;3829;50.798;4.358;2022-11-11T03:04:26;16.33;;;8.63;;
7575;SDS011;3829;50.798;4.358;2022-11-11T03:06:52;14.83;;;8.80;;
7575;SDS011;3829;50.798;4.358;2022-11-11T03:09:17;13.27;;;8.30;;
7575;SDS011;3829;50.798;4.358;2022-11-11T03:11:43;15.07;;;8.40;;
7575;SDS011;3829;50.798;4.358;2022-11-11T03:14:08;17.03;;;7.97;;
7575;SDS011;3829;50.798;4.358;2022-11-11T03:16:34;14.73;;;8.40;;
7575;SDS011;3829;50.798;4.358;2022-11-11T03:19:18;17.97;;;8.57;;
7575;SDS011;3829;50.798;4.358;2022-11-11T03:21:44;15.13;;;8.87;;
7575;SDS011;3829;50.798;4.358;2022-11-11T03:24:09;12.37;;;8.40;;
7575;SDS011;3829;50.798;4.358;2022-11-11T03:26:35;14.33;;;8.63;;
7575;SDS011;3829;50.798;4.358;2022-11-11T03:29:02;12.63;;;8.90;;
7575;SDS011;3829;50.798;4.358;2022-11-11T03:31:28;15.23;;;8.73;;
7575;SDS011;3829;50.798;4.358;2022-11-11T03:33:54;14.80;;;8.50;;
7575;SDS011;3829;50.798;4.358;2022-11-11T03:36:19;16.67;;;8.53;;
7575;SDS011;3829;50.798;4.358;2022-11-11T03:39:05;11.57;;;7.93;;
7575;SDS011;3829;50.798;4.358;2022-11-11T03:41:30;17.40;;;8.20;;
7575;SDS011;3829;50.798;4.358;2022-11-11T03:43:56;14.33;;;8.53;;
7575;SDS011;3829;50.798;4.358;2022-11-11T03:46:21;18.17;;;8.43;;
7575;SDS011;3829;50.798;4.358;2022-11-11T03:48:47;13.90;;;8.07;;
7575;SDS011;3829;50.798;4.358;2022-11-11T03:51:12;12.23;;;8.10;;
7575;SDS011;3829;50.798;4.358;2022-11-11T03:53:38;16.57;;;8.07;;
7575;SDS011;3829;50.798;4.358;2022-11-11T03:56:03;15.87;;;7.30;;
7575;SDS011;3829;50.798;4.358;2022-11-11T03:58:29;9.97;;;8.10;;
7575;SDS011;3829;50.798;4.358;2022-11-11T04:00:55;9.03;;;6.80;;
7575;SDS011;3829;50.798;4.358;2022-11-11T04:03:20;14.97;;;8.13;;
7575;SDS011;3829;50.798;4.358;2022-11-11T04:06:04;15.20;;;7.43;;
7575;SDS011;3829;50.798;4.358;2022-11-11T04:08:52;13.37;;;8.07;;
7575;SDS011;3829;50.798;4.358;2022-11-11T04:11:40;15.50;;;7.83;;
7575;SDS011;3829;50.798;4.358;2022-11-11T04:14:08;11.60;;;7.43;;
7575;SDS011;3829;50.798;4.358;2022-11-11T04:16:53;17.53;;;8.17;;
7575;SDS011;3829;50.798;4.358;2022-11-11T04:19:19;13.80;;;8.27;;
7575;SDS011;3829;50.798;4.358;2022-11-11T04:22:04;14.83;;;7.83;;
7575;SDS011;3829;50.798;4.358;2022-11-11T04:24:30;13.00;;;8.17;;
7575;SDS011;3829;50.798;4.358;2022-11-11T04:27:15;10.27;;;7.97;;
7575;SDS011;3829;50.798;4.358;2022-11-11T04:29:43;12.93;;;8.03;;
7575;SDS011;3829;50.798;4.358;2022-11-11T04:32:20;13.07;;;7.77;;
7575;SDS011;3829;50.798;4.358;2022-11-11T04:35:08;13.20;;;7.40;;
7575;SDS011;3829;50.798;4.358;2022-11-11T04:37:44;13.80;;;8.10;;
7575;SDS011;3829;50.798;4.358;2022-11-11T04:40:13;13.83;;;8.27;;
7575;SDS011;3829;50.798;4.358;2022-11-11T04:42:58;13.90;;;7.50;;
7575;SDS011;3829;50.798;4.358;2022-11-11T04:45:23;11.77;;;7.20;;
7575;SDS011;3829;50.798;4.358;2022-11-11T04:47:58;10.27;;;6.90;;
7575;SDS011;3829;50.798;4.358;2022-11-11T04:50:29;10.47;;;7.73;;
7575;SDS011;3829;50.798;4.358;2022-11-11T04:52:56;17.10;;;7.97;;
7575;SDS011;3829;50.798;4.358;2022-11-11T04:55:22;14.27;;;7.50;;
7575;SDS011;3829;50.798;4.358;2022-11-11T04:58:07;13.70;;;7.60;;
7575;SDS011;3829;50.798;4.358;2022-11-11T05:00:33;12.73;;;7.70;;
7575;SDS011;3829;50.798;4.358;2022-11-11T05:02:59;18.60;;;7.83;;
7575;SDS011;3829;50.798;4.358;2022-11-11T05:08:31;15.13;;;7.93;;
7575;SDS011;3829;50.798;4.358;2022-11-11T05:11:16;14.60;;;8.17;;
7575;SDS011;3829;50.798;4.358;2022-11-11T05:13:42;14.90;;;7.90;;
7575;SDS011;3829;50.798;4.358;2022-11-11T05:16:27;15.37;;;8.17;;
7575;SDS011;3829;50.798;4.358;2022-11-11T05:19:12;13.53;;;7.83;;
7575;SDS011;3829;50.798;4.358;2022-11-11T05:24:56;12.17;;;6.70;;
7575;SDS011;3829;50.798;4.358;2022-11-11T05:27:41;11.87;;;7.23;;
7575;SDS011;3829;50.798;4.358;2022-11-11T05:30:08;15.10;;;8.37;;
7575;SDS011;3829;50.798;4.358;2022-11-11T05:32:35;13.10;;;8.37;;
7575;SDS011;3829;50.798;4.358;2022-11-11T05:35:02;15.07;;;8.43;;
7575;SDS011;3829;50.798;4.358;2022-11-11T05:37:28;14.63;;;7.70;;
7575;SDS011;3829;50.798;4.358;2022-11-11T05:39:54;15.30;;;8.23;;
7575;SDS011;3829;50.798;4.358;2022-11-11T05:42:20;16.53;;;9.23;;
7575;SDS011;3829;50.798;4.358;2022-11-11T05:44:45;13.83;;;8.13;;
7575;SDS011;3829;50.798;4.358;2022-11-11T05:47:11;12.37;;;8.33;;
7575;SDS011;3829;50.798;4.358;2022-11-11T05:49:37;12.77;;;9.87;;
7575;SDS011;3829;50.798;4.358;2022-11-11T05:52:03;16.53;;;9.97;;
7575;SDS011;3829;50.798;4.358;2022-11-11T05:54:29;18.93;;;10.23;;
7575;SDS011;3829;50.798;4.358;2022-11-11T05:56:55;22.27;;;9.73;;
7575;SDS011;3829;50.798;4.358;2022-11-11T05:59:20;21.23;;;9.60;;
7575;SDS011;3829;50.798;4.358;2022-11-11T06:01:46;17.33;;;9.10;;
7575;SDS011;3829;50.798;4.358;2022-11-11T06:04:12;14.60;;;9.27;;
7575;SDS011;3829;50.798;4.358;2022-11-11T06:06:37;15.43;;;10.20;;
7575;SDS011;3829;50.798;4.358;2022-11-11T06:09:03;13.67;;;9.77;;
7575;SDS011;3829;50.798;4.358;2022-11-11T06:11:29;13.20;;;9.67;;
7575;SDS011;3829;50.798;4.358;2022-11-11T06:13:55;17.70;;;9.60;;
7575;SDS011;3829;50.798;4.358;2022-11-11T06:16:21;14.40;;;9.20;;
7575;SDS011;3829;50.798;4.358;2022-11-11T06:18:48;22.97;;;10.07;;
7575;SDS011;3829;50.798;4.358;2022-11-11T06:21:14;18.93;;;10.10;;
7575;SDS011;3829;50.798;4.358;2022-11-11T06:23:40;17.23;;;10.27;;
7575;SDS011;3829;50.798;4.358;2022-11-11T06:26:05;19.63;;;10.93;;
7575;SDS011;3829;50.798;4.358;2022-11-11T06:28:47;17.37;;;10.87;;
7575;SDS011;3829;50.798;4.358;2022-11-11T06:31:14;18.33;;;12.10;;
7575;SDS011;3829;50.798;4.358;2022-11-11T06:33:42;24.60;;;13.50;;
7575;SDS011;3829;50.798;4.358;2022-11-11T06:36:09;21.70;;;11.70;;
7575;SDS011;3829;50.798;4.358;2022-11-11T06:38:37;20.97;;;12.33;;
7575;SDS011;3829;50.798;4.358;2022-11-11T06:41:04;21.97;;;12.60;;
7575;SDS011;3829;50.798;4.358;2022-11-11T06:43:30;25.57;;;12.03;;
7575;SDS011;3829;50.798;4.358;2022-11-11T06:45:56;29.13;;;13.07;;
7575;SDS011;3829;50.798;4.358;2022-11-11T06:48:23;21.30;;;13.07;;
7575;SDS011;3829;50.798;4.358;2022-11-11T06:50:49;20.97;;;13.27;;
7575;SDS011;3829;50.798;4.358;2022-11-11T06:53:16;25.20;;;13.27;;
7575;SDS011;3829;50.798;4.358;2022-11-11T06:55:42;19.73;;;12.37;;
7575;SDS011;3829;50.798;4.358;2022-11-11T06:58:12;19.00;;;12.87;;
7575;SDS011;3829;50.798;4.358;2022-11-11T07:00:44;24.17;;;13.53;;
7575;SDS011;3829;50.798;4.358;2022-11-11T07:03:11;21.87;;;13.87;;
7575;SDS011;3829;50.798;4.358;2022-11-11T07:05:38;22.70;;;13.30;;
7575;SDS011;3829;50.798;4.358;2022-11-11T07:08:05;26.97;;;13.37;;
7575;SDS011;3829;50.798;4.358;2022-11-11T07:10:33;22.10;;;13.70;;
7575;SDS011;3829;50.798;4.358;2022-11-11T07:13:00;27.67;;;13.13;;
7575;SDS011;3829;50.798;4.358;2022-11-11T07:15:26;23.30;;;12.33;;
7575;SDS011;3829;50.798;4.358;2022-11-11T07:17:52;23.57;;;12.83;;
7575;SDS011;3829;50.798;4.358;2022-11-11T07:20:18;26.90;;;14.03;;
7575;SDS011;3829;50.798;4.358;2022-11-11T07:22:45;21.00;;;13.07;;
7575;SDS011;3829;50.798;4.358;2022-11-11T07:25:10;24.37;;;12.47;;
7575;SDS011;3829;50.798;4.358;2022-11-11T07:27:39;21.93;;;13.23;;
7575;SDS011;3829;50.798;4.358;2022-11-11T07:30:06;24.63;;;12.40;;
7575;SDS011;3829;50.798;4.358;2022-11-11T07:32:33;21.77;;;13.60;;
7575;SDS011;3829;50.798;4.358;2022-11-11T07:34:59;22.90;;;12.80;;
7575;SDS011;3829;50.798;4.358;2022-11-11T07:37:25;21.33;;;13.27;;
7575;SDS011;3829;50.798;4.358;2022-11-11T07:39:51;23.67;;;13.00;;
7575;SDS011;3829;50.798;4.358;2022-11-11T07:42:18;21.53;;;12.20;;
7575;SDS011;3829;50.798;4.358;2022-11-11T07:44:45;19.00;;;12.30;;
7575;SDS011;3829;50.798;4.358;2022-11-11T07:47:11;18.57;;;12.50;;
7575;SDS011;3829;50.798;4.358;2022-11-11T07:49:36;23.23;;;12.93;;
7575;SDS011;3829;50.798;4.358;2022-11-11T07:52:02;24.90;;;12.40;;
7575;SDS011;3829;50.798;4.358;2022-11-11T07:54:28;19.03;;;11.90;;
7575;SDS011;3829;50.798;4.358;2022-11-11T07:56:53;17.90;;;11.80;;
7575;SDS011;3829;50.798;4.358;2022-11-11T07:59:19;17.17;;;11.10;;
7575;SDS011;3829;50.798;4.358;2022-11-11T08:01:44;21.77;;;11.37;;
7575;SDS011;3829;50.798;4.358;2022-11-11T08:04:10;20.40;;;11.60;;
7575;SDS011;3829;50.798;4.358;2022-11-11T08:06:36;20.67;;;11.27;;
7575;SDS011;3829;50.798;4.358;2022-11-11T08:09:01;18.10;;;10.63;;
7575;SDS011;3829;50.798;4.358;2022-11-11T08:11:27;22.90;;;11.40;;
7575;SDS011;3829;50.798;4.358;2022-11-11T08:14:11;18.87;;;10.83;;
7575;SDS011;3829;50.798;4.358;2022-11-11T08:16:37;22.80;;;10.97;;
7575;SDS011;3829;50.798;4.358;2022-11-11T08:19:02;11.57;;;6.50;;
7575;SDS011;3829;50.798;4.358;2022-11-11T08:21:28;17.50;;;10.93;;
7575;SDS011;3829;50.798;4.358;2022-11-11T08:23:53;14.50;;;9.97;;
7575;SDS011;3829;50.798;4.358;2022-11-11T08:26:20;23.13;;;11.57;;
7575;SDS011;3829;50.798;4.358;2022-11-11T08:28:47;15.47;;;10.17;;
7575;SDS011;3829;50.798;4.358;2022-11-11T08:31:13;20.53;;;10.53;;
7575;SDS011;3829;50.798;4.358;2022-11-11T08:33:39;19.77;;;10.47;;
7575;SDS011;3829;50.798;4.358;2022-11-11T08:36:04;17.23;;;10.10;;
7575;SDS011;3829;50.798;4.358;2022-11-11T08:38:32;17.93;;;9.33;;
7575;SDS011;3829;50.798;4.358;2022-11-11T08:40:58;19.07;;;11.13;;
7575;SDS011;3829;50.798;4.358;2022-11-11T08:43:28;16.67;;;9.63;;
7575;SDS011;3829;50.798;4.358;2022-11-11T08:45:56;18.27;;;10.27;;
7575;SDS011;3829;50.798;4.358;2022-11-11T08:48:22;15.03;;;9.37;;
7575;SDS011;3829;50.798;4.358;2022-11-11T08:50:50;16.47;;;9.37;;
7575;SDS011;3829;50.798;4.358;2022-11-11T08:53:16;13.90;;;9.40;;
7575;SDS011;3829;50.798;4.358;2022-11-11T08:55:43;18.13;;;10.03;;
7575;SDS011;3829;50.798;4.358;2022-11-11T08:58:08;13.70;;;9.00;;
7575;SDS011;3829;50.798;4.358;2022-11-11T09:00:35;16.70;;;9.33;;
7575;SDS011;3829;50.798;4.358;2022-11-11T09:03:04;15.83;;;9.53;;
7575;SDS011;3829;50.798;4.358;2022-11-11T09:05:31;13.50;;;8.93;;
7575;SDS011;3829;50.798;4.358;2022-11-11T09:08:01;10.93;;;7.67;;
7575;SDS011;3829;50.798;4.358;2022-11-11T09:10:29;13.77;;;8.10;;
7575;SDS011;3829;50.798;4.358;2022-11-11T09:12:55;10.30;;;7.33;;
7575;SDS011;3829;50.798;4.358;2022-11-11T09:15:21;12.90;;;7.93;;
7575;SDS011;3829;50.798;4.358;2022-11-11T09:17:47;15.07;;;7.20;;
7575;SDS011;3829;50.798;4.358;2022-11-11T09:20:13;12.33;;;7.37;;
7575;SDS011;3829;50.798;4.358;2022-11-11T09:22:42;11.50;;;7.13;;
7575;SDS011;3829;50.798;4.358;2022-11-11T09:25:08;14.17;;;7.33;;
7575;SDS011;3829;50.798;4.358;2022-11-11T09:27:34;11.70;;;7.13;;
7575;SDS011;3829;50.798;4.358;2022-11-11T09:29:59;9.60;;;6.53;;
7575;SDS011;3829;50.798;4.358;2022-11-11T09:32:25;9.77;;;5.73;;
7575;SDS011;3829;50.798;4.358;2022-11-11T09:34:50;9.27;;;6.47;;
7575;SDS011;3829;50.798;4.358;2022-11-11T09:37:16;15.73;;;5.70;;
7575;SDS011;3829;50.798;4.358;2022-11-11T09:39:41;8.83;;;5.70;;
7575;SDS011;3829;50.798;4.358;2022-11-11T09:42:13;8.57;;;6.03;;
7575;SDS011;3829;50.798;4.358;2022-11-11T09:47:58;7.03;;;4.93;;
7575;SDS011;3829;50.798;4.358;2022-11-11T09:50:38;9.77;;;4.90;;
7575;SDS011;3829;50.798;4.358;2022-11-11T09:58:12;5.93;;;3.70;;
7575;SDS011;3829;50.798;4.358;2022-11-11T10:00:57;6.00;;;3.40;;
7575;SDS011;3829;50.798;4.358;2022-11-11T10:03:26;4.43;;;3.60;;
7575;SDS011;3829;50.798;4.358;2022-11-11T10:08:45;4.07;;;3.13;;
7575;SDS011;3829;50.798;4.358;2022-11-11T10:14:32;4.53;;;3.33;;
7575;SDS011;3829;50.798;4.358;2022-11-11T10:22:45;2.60;;;2.40;;
7575;SDS011;3829;50.798;4.358;2022-11-11T10:28:07;4.63;;;2.73;;
7575;SDS011;3829;50.798;4.358;2022-11-11T10:30:37;5.40;;;2.47;;
7575;SDS011;3829;50.798;4.358;2022-11-11T10:33:05;5.53;;;2.47;;
7575;SDS011;3829;50.798;4.358;2022-11-11T10:35:40;3.40;;;2.40;;
7575;SDS011;3829;50.798;4.358;2022-11-11T10:38:30;3.47;;;2.30;;
7575;SDS011;3829;50.798;4.358;2022-11-11T10:41:38;3.90;;;1.97;;
7575;SDS011;3829;50.798;4.358;2022-11-11T10:44:20;5.07;;;2.37;;
7575;SDS011;3829;50.798;4.358;2022-11-11T10:46:54;3.53;;;1.90;;
7575;SDS011;3829;50.798;4.358;2022-11-11T10:49:29;3.67;;;2.47;;
7575;SDS011;3829;50.798;4.358;2022-11-11T10:52:11;4.43;;;2.20;;
7575;SDS011;3829;50.798;4.358;2022-11-11T10:54:49;4.50;;;2.00;;
7575;SDS011;3829;50.798;4.358;2022-11-11T10:57:22;4.20;;;1.90;;
7575;SDS011;3829;50.798;4.358;2022-11-11T11:00:07;80.87;;;6.83;;
7575;SDS011;3829;50.798;4.358;2022-11-11T11:02:47;4.57;;;1.97;;
7575;SDS011;3829;50.798;4.358;2022-11-11T11:07:57;4.67;;;2.20;;
7575;SDS011;3829;50.798;4.358;2022-11-11T11:10:40;4.27;;;2.27;;
7575;SDS011;3829;50.798;4.358;2022-11-11T11:13:16;3.73;;;2.10;;
7575;SDS011;3829;50.798;4.358;2022-11-11T11:16:03;4.10;;;1.90;;
7575;SDS011;3829;50.798;4.358;2022-11-11T11:18:33;3.03;;;1.87;;
7575;SDS011;3829;50.798;4.358;2022-11-11T11:21:00;4.00;;;1.70;;
7575;SDS011;3829;50.798;4.358;2022-11-11T11:23:45;3.13;;;1.73;;
7575;SDS011;3829;50.798;4.358;2022-11-11T11:26:13;2.47;;;1.90;;
7575;SDS011;3829;50.798;4.358;2022-11-11T11:28:52;2.03;;;1.50;;
7575;SDS011;3829;50.798;4.358;2022-11-11T11:31:36;3.70;;;2.00;;
7575;SDS011;3829;50.798;4.358;2022-11-11T11:34:03;2.27;;;1.70;;
7575;SDS011;3829;50.798;4.358;2022-11-11T11:36:29;2.80;;;1.90;;
7575;SDS011;3829;50.798;4.358;2022-11-11T11:38:55;2.27;;;1.93;;
7575;SDS011;3829;50.798;4.358;2022-11-11T11:44:23;4.20;;;2.20;;
7575;SDS011;3829;50.798;4.358;2022-11-11T11:46:54;3.67;;;1.97;;
7575;SDS011;3829;50.798;4.358;2022-11-11T11:55:34;4.73;;;2.27;;
7575;SDS011;3829;50.798;4.358;2022-11-11T12:01:01;5.00;;;2.10;;
7575;SDS011;3829;50.798;4.358;2022-11-11T12:11:33;3.67;;;2.33;;
7575;SDS011;3829;50.798;4.358;2022-11-11T12:17:29;3.10;;;2.20;;
7575;SDS011;3829;50.798;4.358;2022-11-11T12:20:38;3.37;;;1.83;;
7575;SDS011;3829;50.798;4.358;2022-11-11T12:23:17;3.10;;;1.93;;
7575;SDS011;3829;50.798;4.358;2022-11-11T12:27:00;3.57;;;2.00;;
7575;SDS011;3829;50.798;4.358;2022-11-11T12:32:06;3.47;;;1.77;;
7575;SDS011;3829;50.798;4.358;2022-11-11T12:43:13;3.37;;;2.03;;
7575;SDS011;3829;50.798;4.358;2022-11-11T13:02:53;2.90;;;1.97;;
7575;SDS011;3829;50.798;4.358;2022-11-11T13:16:30;4.43;;;2.50;;
7575;SDS011;3829;50.798;4.358;2022-11-11T13:18:56;4.80;;;2.00;;
7575;SDS011;3829;50.798;4.358;2022-11-11T13:21:29;5.57;;;2.30;;
7575;SDS011;3829;50.798;4.358;2022-11-11T13:24:01;4.47;;;2.20;;
7575;SDS011;3829;50.798;4.358;2022-11-11T13:26:33;5.27;;;2.30;;
7575;SDS011;3829;50.798;4.358;2022-11-11T13:29:13;6.13;;;2.00;;
7575;SDS011;3829;50.798;4.358;2022-11-11T13:31:42;7.57;;;2.50;;
7575;SDS011;3829;50.798;4.358;2022-11-11T13:34:11;2.63;;;2.40;;
7575;SDS011;3829;50.798;4.358;2022-11-11T13:36:43;3.43;;;2.00;;
7575;SDS011;3829;50.798;4.358;2022-11-11T13:42:20;3.00;;;2.13;;
7575;SDS011;3829;50.798;4.358;2022-11-11T13:44:50;2.90;;;2.13;;
7575;SDS011;3829;50.798;4.358;2022-11-11T13:47:18;3.47;;;2.20;;
7575;SDS011;3829;50.798;4.358;2022-11-11T13:49:55;4.70;;;2.37;;
7575;SDS011;3829;50.798;4.358;2022-11-11T13:52:30;5.03;;;2.40;;
7575;SDS011;3829;50.798;4.358;2022-11-11T13:55:05;3.87;;;2.30;;
7575;SDS011;3829;50.798;4.358;2022-11-11T13:57:33;3.20;;;2.10;;
7575;SDS011;3829;50.798;4.358;2022-11-11T14:02:42;4.10;;;2.40;;
7575;SDS011;3829;50.798;4.358;2022-11-11T14:10:08;3.83;;;2.17;;
7575;SDS011;3829;50.798;4.358;2022-11-11T14:12:53;3.27;;;2.30;;
7575;SDS011;3829;50.798;4.358;2022-11-11T14:18:10;3.80;;;2.30;;
7575;SDS011;3829;50.798;4.358;2022-11-11T14:21:03;2.17;;;1.70;;
7575;SDS011;3829;50.798;4.358;2022-11-11T14:28:36;3.53;;;1.83;;
7575;SDS011;3829;50.798;4.358;2022-11-11T14:31:29;5.53;;;2.07;;
7575;SDS011;3829;50.798;4.358;2022-11-11T14:37:02;3.03;;;1.90;;
7575;SDS011;3829;50.798;4.358;2022-11-11T14:39:51;3.27;;;1.63;;
7575;SDS011;3829;50.798;4.358;2022-11-11T14:44:58;3.77;;;1.80;;
7575;SDS011;3829;50.798;4.358;2022-11-11T14:47:31;2.97;;;1.70;;
7575;SDS011;3829;50.798;4.358;2022-11-11T14:50:00;2.97;;;1.77;;
7575;SDS011;3829;50.798;4.358;2022-11-11T15:00:32;3.80;;;2.17;;
7575;SDS011;3829;50.798;4.358;2022-11-11T15:03:11;2.27;;;2.03;;
7575;SDS011;3829;50.798;4.358;2022-11-11T15:05:57;3.40;;;2.63;;
7575;SDS011;3829;50.798;4.358;2022-11-11T15:11:37;4.33;;;2.90;;
7575;SDS011;3829;50.798;4.358;2022-11-11T15:22:56;3.20;;;2.40;;
7575;SDS011;3829;50.798;4.358;2022-11-11T15:28:49;5.13;;;2.63;;
7575;SDS011;3829;50.798;4.358;2022-11-11T15:34:16;4.23;;;2.77;;
7575;SDS011;3829;50.798;4.358;2022-11-11T15:36:57;4.20;;;2.63;;
7575;SDS011;3829;50.798;4.358;2022-11-11T15:39:49;3.37;;;2.47;;
7575;SDS011;3829;50.798;4.358;2022-11-11T15:44:51;7.30;;;2.80;;
7575;SDS011;3829;50.798;4.358;2022-11-11T15:47:18;6.30;;;2.97;;
7575;SDS011;3829;50.798;4.358;2022-11-11T15:49:47;4.83;;;2.87;;
7575;SDS011;3829;50.798;4.358;2022-11-11T15:52:23;6.33;;;2.80;;
7575;SDS011;3829;50.798;4.358;2022-11-11T15:54:54;7.57;;;3.50;;
7575;SDS011;3829;50.798;4.358;2022-11-11T15:57:21;5.20;;;3.63;;
7575;SDS011;3829;50.798;4.358;2022-11-11T15:59:48;5.27;;;3.40;;
7575;SDS011;3829;50.798;4.358;2022-11-11T16:02:16;6.57;;;4.10;;
7575;SDS011;3829;50.798;4.358;2022-11-11T16:04:45;5.37;;;3.80;;
7575;SDS011;3829;50.798;4.358;2022-11-11T16:07:19;7.93;;;4.00;;
7575;SDS011;3829;50.798;4.358;2022-11-11T16:09:47;6.20;;;3.80;;
7575;SDS011;3829;50.798;4.358;2022-11-11T16:12:15;5.23;;;4.00;;
7575;SDS011;3829;50.798;4.358;2022-11-11T16:14:48;6.70;;;4.10;;
7575;SDS011;3829;50.798;4.358;2022-11-11T16:17:17;9.57;;;5.03;;
7575;SDS011;3829;50.798;4.358;2022-11-11T16:19:43;9.03;;;4.53;;
7575;SDS011;3829;50.798;4.358;2022-11-11T16:22:13;9.27;;;4.97;;
7575;SDS011;3829;50.798;4.358;2022-11-11T16:25:01;8.97;;;4.90;;
7575;SDS011;3829;50.798;4.358;2022-11-11T16:27:29;7.73;;;5.13;;
7575;SDS011;3829;50.798;4.358;2022-11-11T16:30:13;10.53;;;7.27;;
7575;SDS011;3829;50.798;4.358;2022-11-11T16:32:42;12.67;;;8.33;;
7575;SDS011;3829;50.798;4.358;2022-11-11T16:38:03;11.20;;;7.50;;
7575;SDS011;3829;50.798;4.358;2022-11-11T16:45:51;9.47;;;5.97;;
7575;SDS011;3829;50.798;4.358;2022-11-11T16:51:03;9.77;;;6.13;;
7575;SDS011;3829;50.798;4.358;2022-11-11T16:53:33;12.10;;;5.93;;
7575;SDS011;3829;50.798;4.358;2022-11-11T16:56:02;8.60;;;5.97;;
7575;SDS011;3829;50.798;4.358;2022-11-11T16:58:29;8.33;;;5.70;;
7575;SDS011;3829;50.798;4.358;2022-11-11T17:01:02;8.40;;;4.97;;
7575;SDS011;3829;50.798;4.358;2022-11-11T17:03:28;6.37;;;5.30;;
7575;SDS011;3829;50.798;4.358;2022-11-11T17:08:30;8.73;;;5.73;;
7575;SDS011;3829;50.798;4.358;2022-11-11T17:10:59;10.07;;;6.40;;
7575;SDS011;3829;50.798;4.358;2022-11-11T17:13:25;9.53;;;6.00;;
7575;SDS011;3829;50.798;4.358;2022-11-11T17:15:52;10.20;;;6.47;;
7575;SDS011;3829;50.798;4.358;2022-11-11T17:18:18;8.73;;;6.40;;
7575;SDS011;3829;50.798;4.358;2022-11-11T17:20:44;9.43;;;5.63;;
7575;SDS011;3829;50.798;4.358;2022-11-11T17:23:10;7.67;;;6.27;;
7575;SDS011;3829;50.798;4.358;2022-11-11T17:25:36;8.23;;;6.30;;
7575;SDS011;3829;50.798;4.358;2022-11-11T17:28:01;10.20;;;6.30;;
7575;SDS011;3829;50.798;4.358;2022-11-11T17:30:27;11.73;;;6.40;;
7575;SDS011;3829;50.798;4.358;2022-11-11T17:32:52;10.13;;;6.33;;
7575;SDS011;3829;50.798;4.358;2022-11-11T17:35:18;11.70;;;5.93;;
7575;SDS011;3829;50.798;4.358;2022-11-11T17:37:43;8.80;;;5.90;;
7575;SDS011;3829;50.798;4.358;2022-11-11T17:40:09;8.53;;;5.97;;
7575;SDS011;3829;50.798;4.358;2022-11-11T17:42:35;7.40;;;5.70;;
7575;SDS011;3829;50.798;4.358;2022-11-11T17:45:04;10.10;;;6.70;;
7575;SDS011;3829;50.798;4.358;2022-11-11T17:47:30;12.37;;;6.80;;
7575;SDS011;3829;50.798;4.358;2022-11-11T17:49:57;8.97;;;6.33;;
7575;SDS011;3829;50.798;4.358;2022-11-11T17:52:23;10.67;;;6.70;;
7575;SDS011;3829;50.798;4.358;2022-11-11T17:54:48;8.97;;;6.70;;
7575;SDS011;3829;50.798;4.358;2022-11-11T17:57:14;12.50;;;7.00;;
7575;SDS011;3829;50.798;4.358;2022-11-11T17:59:40;12.23;;;7.27;;
7575;SDS011;3829;50.798;4.358;2022-11-11T18:02:06;14.20;;;8.20;;
7575;SDS011;3829;50.798;4.358;2022-11-11T18:04:31;14.00;;;7.43;;
7575;SDS011;3829;50.798;4.358;2022-11-11T18:06:57;11.83;;;7.20;;